createdAt,value
2019-05-13T00:00:59.939Z,62.30
2019-05-13T00:03:33.482Z,66.20
2019-05-13T00:06:05.647Z,70.12
2019-05-13T00:08:37.360Z,68.85
2019-05-13T00:11:08.891Z,63.73
2019-05-13T00:13:40.166Z,59.25
2019-05-13T00:16:13.935Z,64.70
2019-05-13T00:18:45.426Z,62.08
2019-05-13T00:21:17.022Z,60.30
2019-05-13T00:23:49.149Z,64.70
2019-05-13T00:26:24.476Z,64.37
2019-05-13T00:29:08.680Z,68.65
2019-05-13T00:31:43.841Z,60.00
2019-05-13T00:34:15.181Z,65.40
2019-05-13T00:36:46.649Z,59.58
2019-05-13T00:39:18.026Z,66.33
2019-05-13T00:41:53.090Z,63.68
2019-05-13T00:44:25.407Z,65.08
2019-05-13T00:46:57.899Z,62.73
2019-05-13T00:49:37.423Z,59.53
2019-05-13T00:52:08.573Z,56.48
2019-05-13T00:54:40.925Z,56.90
2019-05-13T00:57:13.361Z,59.45
2019-05-13T00:59:51.426Z,62.33
2019-05-13T01:02:24.316Z,56.88
2019-05-13T01:04:55.944Z,60.43
2019-05-13T01:07:28.950Z,60.33
2019-05-13T01:10:00.610Z,60.12
2019-05-13T01:12:34.296Z,57.03
2019-05-13T01:15:06.048Z,54.70
2019-05-13T01:17:37.271Z,55.03
2019-05-13T01:20:08.513Z,51.53
2019-05-13T01:22:40.656Z,56.73
2019-05-13T01:25:14.452Z,49.27
2019-05-13T01:27:46.619Z,53.90
2019-05-13T01:30:19.655Z,45.40
2019-05-13T01:32:50.871Z,52.03
2019-05-13T01:35:23.568Z,45.23
2019-05-13T01:37:55.731Z,49.60
2019-05-13T01:40:26.987Z,52.00
2019-05-13T01:42:58.231Z,52.38
2019-05-13T01:45:29.797Z,46.90
2019-05-13T01:48:01.120Z,51.08
2019-05-13T01:50:33.757Z,52.15
2019-05-13T01:53:05.391Z,56.05
2019-05-13T01:55:36.815Z,51.30
2019-05-13T01:58:08.047Z,51.20
2019-05-13T02:00:39.269Z,51.90
2019-05-13T02:03:10.609Z,53.40
2019-05-13T02:05:43.929Z,44.58
2019-05-13T02:08:14.792Z,45.48
2019-05-13T02:10:54.625Z,49.67
2019-05-13T02:13:26.322Z,48.85
2019-05-13T02:15:57.763Z,49.63
2019-05-13T02:18:28.963Z,47.27
2019-05-13T02:21:00.239Z,48.78
2019-05-13T02:23:33.856Z,49.00
2019-05-13T02:26:04.631Z,46.50
2019-05-13T02:28:37.471Z,48.30
2019-05-13T02:31:12.409Z,45.70
2019-05-13T02:33:42.376Z,46.15
2019-05-13T02:36:14.100Z,48.90
2019-05-13T02:38:45.441Z,48.70
2019-05-13T02:41:16.640Z,52.25
2019-05-13T02:43:47.984Z,49.88
2019-05-13T02:46:22.376Z,50.95
2019-05-13T02:48:52.906Z,53.52
2019-05-13T02:51:24.516Z,50.58
2019-05-13T02:53:55.714Z,49.27
2019-05-13T02:56:27.064Z,44.67
2019-05-13T02:58:58.247Z,51.58
2019-05-13T03:01:32.873Z,41.77
2019-05-13T03:04:03.327Z,40.28
2019-05-13T03:06:34.887Z,37.13
2019-05-13T03:09:07.454Z,34.73
2019-05-13T03:11:41.543Z,35.03
2019-05-13T03:14:12.829Z,32.80
2019-05-13T03:16:45.980Z,35.10
2019-05-13T03:19:17.291Z,35.78
2019-05-13T03:21:51.964Z,35.75
2019-05-13T03:24:22.726Z,34.30
2019-05-13T03:26:54.746Z,32.95
2019-05-13T03:29:26.060Z,31.62
2019-05-13T03:31:57.305Z,30.35
2019-05-13T03:34:28.546Z,32.85
2019-05-13T03:37:06.707Z,35.13
2019-05-13T03:39:34.447Z,34.90
2019-05-13T03:42:05.874Z,32.70
2019-05-13T03:44:37.115Z,39.30
2019-05-13T03:47:08.504Z,33.05
2019-05-13T03:49:42.225Z,34.10
2019-05-13T03:52:13.567Z,35.55
2019-05-13T03:54:46.680Z,32.80
2019-05-13T03:57:18.197Z,34.58
2019-05-13T03:59:52.401Z,35.00
2019-05-13T04:02:22.895Z,32.58
2019-05-13T04:04:59.011Z,33.42
2019-05-13T04:07:32.424Z,37.65
2019-05-13T04:10:03.363Z,32.63
2019-05-13T04:12:34.951Z,36.00
2019-05-13T04:15:07.316Z,36.90
2019-05-13T04:17:38.540Z,32.95
2019-05-13T04:20:12.595Z,34.92
2019-05-13T04:22:42.946Z,36.08
2019-05-13T04:25:14.296Z,35.40
2019-05-13T04:27:45.684Z,32.05
2019-05-13T04:30:34.425Z,34.50
2019-05-13T04:33:13.937Z,36.33
2019-05-13T04:35:45.960Z,32.20
2019-05-13T04:38:17.454Z,30.95
2019-05-13T04:40:52.870Z,35.98
2019-05-13T04:43:30.095Z,32.25
2019-05-13T04:45:58.808Z,32.50
2019-05-13T04:48:33.613Z,37.88
2019-05-13T04:51:03.383Z,35.90
2019-05-13T04:53:37.209Z,35.75
2019-05-13T04:56:08.606Z,33.75
2019-05-13T04:58:42.856Z,36.20
2019-05-13T05:01:24.958Z,36.93
2019-05-13T05:04:11.411Z,32.50
2019-05-13T05:06:52.670Z,30.10
2019-05-13T05:10:15.503Z,29.98
2019-05-13T05:12:44.893Z,25.15
2019-05-13T05:15:41.560Z,28.57
2019-05-13T05:18:37.388Z,27.90
2019-05-13T05:21:26.786Z,35.50
2019-05-13T05:24:13.079Z,32.40
2019-05-13T05:26:56.672Z,32.95
2019-05-13T05:30:03.086Z,30.50
2019-05-13T05:32:43.466Z,30.35
2019-05-13T05:35:33.120Z,28.00
2019-05-13T05:38:25.236Z,22.27
2019-05-13T05:40:54.325Z,22.87
2019-05-13T05:43:25.957Z,26.55
2019-05-13T05:45:57.967Z,22.85
2019-05-13T05:48:31.373Z,27.58
2019-05-13T05:51:02.382Z,22.25
2019-05-13T05:53:33.687Z,25.80
2019-05-13T05:56:05.156Z,21.70
2019-05-13T05:58:38.162Z,26.77
2019-05-13T06:01:11.841Z,23.60
2019-05-13T06:03:43.382Z,28.75
2019-05-13T06:06:15.074Z,28.10
2019-05-13T06:08:46.352Z,23.62
2019-05-13T06:11:17.696Z,28.52
2019-05-13T06:13:52.174Z,31.82
2019-05-13T06:16:23.457Z,28.57
2019-05-13T06:18:55.189Z,23.57
2019-05-13T06:21:26.341Z,23.65
2019-05-13T06:23:57.676Z,25.35
2019-05-13T06:26:31.285Z,32.17
2019-05-13T06:29:02.720Z,28.70
2019-05-13T06:31:34.260Z,26.85
2019-05-13T06:34:05.734Z,27.87
2019-05-13T06:36:36.976Z,23.77
2019-05-13T06:39:12.378Z,25.02
2019-05-13T06:41:43.014Z,25.52
2019-05-13T06:44:14.188Z,26.82
2019-05-13T06:46:45.972Z,28.17
2019-05-13T06:49:17.383Z,27.62
2019-05-13T06:51:48.628Z,20.88
2019-05-13T06:54:21.932Z,27.07
2019-05-13T06:56:53.362Z,25.50
2019-05-13T06:59:24.566Z,27.95
2019-05-13T07:01:55.866Z,25.25
2019-05-13T07:04:27.359Z,24.25
2019-05-13T07:07:09.895Z,23.87
2019-05-13T07:09:32.358Z,26.45
2019-05-13T07:12:07.522Z,23.67
2019-05-13T07:14:41.153Z,21.85
2019-05-13T07:17:12.959Z,23.67
2019-05-13T07:19:45.794Z,26.27
2019-05-13T07:22:16.980Z,26.33
2019-05-13T07:24:51.786Z,25.43
2019-05-13T07:27:23.091Z,21.17
2019-05-13T07:29:55.963Z,22.73
2019-05-13T07:32:27.222Z,22.67
2019-05-13T07:34:58.530Z,22.77
2019-05-13T07:37:31.792Z,36.77
2019-05-13T07:40:06.947Z,23.07
2019-05-13T07:42:38.299Z,21.60
2019-05-13T07:45:12.111Z,29.80
2019-05-13T07:47:45.813Z,22.70
2019-05-13T07:50:17.239Z,33.67
2019-05-13T07:52:51.410Z,25.15
2019-05-13T07:55:22.357Z,22.62
2019-05-13T07:57:53.862Z,21.70
2019-05-13T08:00:25.778Z,23.45
2019-05-13T08:02:57.175Z,18.50
2019-05-13T08:05:28.626Z,16.07
2019-05-13T08:08:02.201Z,21.73
2019-05-13T08:10:33.726Z,17.90
2019-05-13T08:13:05.002Z,19.42
2019-05-13T08:15:36.324Z,19.65
2019-05-13T08:18:07.673Z,16.70
2019-05-13T08:20:41.749Z,19.05
2019-05-13T08:23:12.257Z,19.32
2019-05-13T08:25:44.475Z,15.58
2019-05-13T08:28:15.760Z,14.73
2019-05-13T08:30:46.958Z,16.85
2019-05-13T08:33:18.281Z,14.43
2019-05-13T08:35:53.999Z,18.32
2019-05-13T08:38:23.110Z,17.15
2019-05-13T08:40:54.739Z,14.65
2019-05-13T08:43:26.932Z,14.63
2019-05-13T08:45:58.419Z,19.55
2019-05-13T08:48:32.104Z,14.35
2019-05-13T08:51:03.405Z,15.83
2019-05-13T08:53:36.186Z,16.77
2019-05-13T08:56:07.516Z,18.50
2019-05-13T08:58:41.252Z,24.72
2019-05-13T09:01:12.794Z,26.50
2019-05-13T09:03:44.430Z,24.32
2019-05-13T09:06:15.909Z,28.35
2019-05-13T09:08:47.271Z,24.72
2019-05-13T09:11:18.563Z,27.13
2019-05-13T09:13:51.575Z,18.75
2019-05-13T09:16:22.610Z,19.85
2019-05-13T09:18:53.766Z,18.25
2019-05-13T09:21:26.806Z,20.97
2019-05-13T09:23:58.055Z,20.68
2019-05-13T09:26:31.626Z,14.68
2019-05-13T09:29:02.489Z,18.67
2019-05-13T09:31:34.845Z,17.42
2019-05-13T09:34:07.106Z,18.80
2019-05-13T09:36:38.385Z,19.07
2019-05-13T09:39:13.058Z,15.15
2019-05-13T09:41:44.831Z,13.60
2019-05-13T09:44:16.388Z,15.38
2019-05-13T09:46:48.106Z,16.90
2019-05-13T09:49:23.727Z,15.48
2019-05-13T09:51:54.709Z,15.60
2019-05-13T09:54:25.973Z,18.30
2019-05-13T09:56:57.403Z,20.50
2019-05-13T09:59:28.630Z,16.65
2019-05-13T10:02:02.609Z,18.00
2019-05-13T10:04:36.363Z,13.35
2019-05-13T10:07:07.670Z,20.00
2019-05-13T10:09:38.987Z,15.65
2019-05-13T10:12:12.193Z,14.07
2019-05-13T10:14:43.313Z,15.83
2019-05-13T10:17:15.428Z,17.40
2019-05-13T10:19:55.873Z,13.70
2019-05-13T10:22:28.614Z,16.25
2019-05-13T10:25:02.707Z,15.55
2019-05-13T10:27:37.069Z,19.85
2019-05-13T10:30:11.304Z,12.80
2019-05-13T10:32:42.495Z,14.18
2019-05-13T10:35:14.159Z,14.45
2019-05-13T10:37:47.082Z,12.98
2019-05-13T10:40:18.714Z,14.80
2019-05-13T10:42:52.663Z,13.90
2019-05-13T10:45:24.079Z,11.78
2019-05-13T10:47:55.441Z,16.12
2019-05-13T10:50:27.886Z,12.00
2019-05-13T10:52:59.340Z,15.32
2019-05-13T10:55:32.479Z,9.70
2019-05-13T10:58:03.511Z,12.00
2019-05-13T11:00:43.924Z,11.18
2019-05-13T11:03:16.141Z,10.43
2019-05-13T11:05:48.507Z,14.85
2019-05-13T11:08:22.147Z,10.68
2019-05-13T11:10:54.951Z,15.05
2019-05-13T11:13:46.833Z,11.88
2019-05-13T11:16:02.343Z,12.70
2019-05-13T11:18:33.844Z,17.17
2019-05-13T11:21:05.027Z,14.98
2019-05-13T11:23:37.255Z,16.10
2019-05-13T11:26:08.593Z,16.75
2019-05-13T11:28:42.692Z,17.67
2019-05-13T11:31:12.930Z,18.00
2019-05-13T11:33:44.825Z,14.20
2019-05-13T11:36:19.061Z,11.78
2019-05-13T11:38:49.775Z,13.95
2019-05-13T11:41:23.064Z,14.00
2019-05-13T11:44:12.190Z,13.45
2019-05-13T11:46:27.946Z,13.58
2019-05-13T11:49:02.243Z,13.85
2019-05-13T11:51:32.435Z,14.80
2019-05-13T11:54:05.093Z,10.13
2019-05-13T11:56:36.617Z,10.45
2019-05-13T11:59:07.862Z,15.20
2019-05-13T12:01:42.392Z,10.10
2019-05-13T12:04:13.545Z,10.72
2019-05-13T12:06:49.027Z,12.05
2019-05-13T12:09:21.982Z,12.45
2019-05-13T12:11:52.970Z,11.18
2019-05-13T12:14:43.670Z,8.95
2019-05-13T12:16:57.305Z,9.25
2019-05-13T12:19:28.863Z,9.25
2019-05-13T12:22:02.726Z,10.75
2019-05-13T12:24:34.253Z,8.80
2019-05-13T12:27:05.563Z,6.75
2019-05-13T12:29:36.995Z,5.92
2019-05-13T12:32:08.467Z,5.90
2019-05-13T12:34:45.642Z,8.93
2019-05-13T12:37:13.005Z,8.88
2019-05-13T12:39:44.392Z,5.70
2019-05-13T12:42:22.447Z,7.00
2019-05-13T12:45:08.298Z,5.80
2019-05-13T12:47:25.303Z,6.33
2019-05-13T12:49:56.670Z,7.95
2019-05-13T12:52:28.046Z,5.40
2019-05-13T12:55:02.958Z,6.87
2019-05-13T12:57:33.906Z,7.28
2019-05-13T13:00:07.641Z,8.43
2019-05-13T13:02:39.280Z,8.85
2019-05-13T13:05:19.560Z,10.45
2019-05-13T13:08:12.067Z,7.97
2019-05-13T13:10:18.982Z,12.00
2019-05-13T13:12:54.589Z,20.40
2019-05-13T13:15:37.097Z,16.97
2019-05-13T13:18:02.471Z,10.98
2019-05-13T13:20:33.522Z,12.70
2019-05-13T13:23:04.858Z,10.35
2019-05-13T13:25:36.130Z,14.75
2019-05-13T13:28:14.329Z,9.73
2019-05-13T13:30:43.909Z,11.43
2019-05-13T13:33:15.334Z,9.30
2019-05-13T13:35:55.927Z,11.15
2019-05-13T13:38:25.206Z,8.58
2019-05-13T13:40:57.370Z,9.85
2019-05-13T13:43:29.111Z,11.43
2019-05-13T13:46:08.534Z,11.73
2019-05-13T13:48:34.582Z,12.13
2019-05-13T13:51:06.123Z,10.90
2019-05-13T13:53:37.610Z,7.97
2019-05-13T13:56:08.982Z,8.73
2019-05-13T13:58:43.963Z,7.85
2019-05-13T14:01:18.533Z,11.35
2019-05-13T14:03:47.041Z,7.60
2019-05-13T14:07:20.408Z,10.82
2019-05-13T14:08:52.086Z,17.60
2019-05-13T14:11:23.637Z,17.52
2019-05-13T14:13:54.922Z,12.85
2019-05-13T14:16:32.513Z,13.08
2019-05-13T14:18:59.965Z,14.53
2019-05-13T14:21:33.009Z,9.95
2019-05-13T14:24:05.970Z,8.50
2019-05-13T14:26:43.438Z,7.67
2019-05-13T14:29:40.693Z,10.65
2019-05-13T14:32:05.132Z,8.00
2019-05-13T14:34:41.859Z,9.10
2019-05-13T14:37:13.391Z,9.50
2019-05-13T14:39:45.891Z,8.58
2019-05-13T14:42:17.366Z,10.38
2019-05-13T14:44:48.841Z,17.12
2019-05-13T14:47:21.791Z,9.88
2019-05-13T14:49:53.555Z,10.43
2019-05-13T14:52:28.066Z,10.60
2019-05-13T14:55:02.183Z,13.00
2019-05-13T14:57:33.647Z,12.98
2019-05-13T15:00:08.082Z,15.13
2019-05-13T15:02:41.936Z,16.00
2019-05-13T15:05:12.796Z,15.05
2019-05-13T15:07:45.580Z,12.28
2019-05-13T15:10:17.935Z,11.00
2019-05-13T15:12:52.354Z,9.93
2019-05-13T15:15:24.251Z,9.95
2019-05-13T15:17:56.162Z,10.98
2019-05-13T15:20:27.459Z,15.48
2019-05-13T15:22:58.945Z,13.72
2019-05-13T15:25:31.364Z,13.15
2019-05-13T15:28:03.249Z,11.75
2019-05-13T15:30:37.332Z,11.10
2019-05-13T15:33:08.729Z,13.98
2019-05-13T15:35:42.010Z,9.98
2019-05-13T15:38:14.385Z,11.03
2019-05-13T15:40:45.942Z,11.45
2019-05-13T15:43:18.556Z,9.80
2019-05-13T15:45:51.319Z,14.65
2019-05-13T15:48:33.842Z,12.05
2019-05-13T15:51:05.455Z,18.02
2019-05-13T15:53:36.935Z,12.85
2019-05-13T15:56:22.286Z,15.20
2019-05-13T15:58:49.300Z,13.08
2019-05-13T16:01:23.005Z,16.37
2019-05-13T16:03:53.872Z,25.68
2019-05-13T16:06:25.547Z,22.77
2019-05-13T16:08:57.664Z,22.75
2019-05-13T16:11:32.258Z,20.52
2019-05-13T16:14:02.758Z,14.40
2019-05-13T16:16:37.022Z,16.85
2019-05-13T16:19:08.572Z,15.00
2019-05-13T16:21:41.567Z,11.68
2019-05-13T16:24:14.235Z,12.58
2019-05-13T16:26:46.992Z,11.63
2019-05-13T16:29:18.546Z,16.00
2019-05-13T16:31:51.941Z,10.60
2019-05-13T16:34:25.862Z,13.90
2019-05-13T16:36:58.598Z,13.48
2019-05-13T16:39:32.059Z,11.53
2019-05-13T16:42:05.170Z,12.28
2019-05-13T16:44:37.575Z,11.73
2019-05-13T16:47:09.064Z,11.83
2019-05-13T16:49:41.208Z,7.83
2019-05-13T16:52:12.782Z,8.35
2019-05-13T16:54:44.227Z,12.95
2019-05-13T16:57:16.945Z,13.98
2019-05-13T16:59:51.537Z,12.35
2019-05-13T17:02:23.642Z,14.40
2019-05-13T17:04:56.117Z,9.20
2019-05-13T17:07:27.488Z,9.20
2019-05-13T17:10:03.447Z,8.75
2019-05-13T17:12:38.994Z,9.73
2019-05-13T17:15:11.578Z,10.25
2019-05-13T17:17:44.155Z,10.90
2019-05-13T17:20:18.012Z,7.40
2019-05-13T17:22:51.321Z,8.55
2019-05-13T17:25:23.424Z,11.10
2019-05-13T17:27:55.005Z,7.47
2019-05-13T17:30:28.373Z,19.82
2019-05-13T17:33:02.291Z,7.12
2019-05-13T17:35:33.641Z,8.78
2019-05-13T17:38:06.925Z,11.03
2019-05-13T17:40:38.403Z,9.00
2019-05-13T17:43:11.911Z,11.00
2019-05-13T17:45:45.589Z,9.05
2019-05-13T17:48:28.487Z,9.53
2019-05-13T17:50:52.088Z,10.08
2019-05-13T17:53:24.135Z,13.62
2019-05-13T17:56:04.800Z,12.85
2019-05-13T17:58:37.756Z,11.70
2019-05-13T18:01:12.093Z,13.20
2019-05-13T18:03:45.014Z,13.32
2019-05-13T18:06:17.379Z,13.25
2019-05-13T18:08:49.051Z,13.15
2019-05-13T18:11:22.032Z,15.20
2019-05-13T18:13:53.876Z,15.25
2019-05-13T18:16:27.814Z,15.18
2019-05-13T18:19:00.365Z,14.28
2019-05-13T18:21:34.461Z,17.07
2019-05-13T18:24:06.278Z,16.87
2019-05-13T18:26:37.821Z,27.20
2019-05-13T18:29:11.942Z,15.30
2019-05-13T18:31:43.725Z,15.48
2019-05-13T18:34:16.779Z,14.87
2019-05-13T18:36:51.402Z,14.98
2019-05-13T18:39:22.285Z,17.32
2019-05-13T18:41:53.970Z,15.85
2019-05-13T18:44:28.537Z,15.50
2019-05-13T18:47:01.888Z,20.43
2019-05-13T18:49:44.458Z,14.73
2019-05-13T18:52:22.257Z,13.58
2019-05-13T18:54:54.334Z,14.75
2019-05-13T18:57:31.726Z,14.35
2019-05-13T19:00:10.999Z,16.52
2019-05-13T19:02:41.578Z,15.20
2019-05-13T19:05:18.288Z,14.00
2019-05-13T19:07:53.868Z,18.77
2019-05-13T19:10:26.578Z,15.40
2019-05-13T19:13:01.665Z,17.98
2019-05-13T19:15:51.710Z,16.12
2019-05-13T19:18:31.839Z,15.13
2019-05-13T19:21:17.082Z,14.65
2019-05-13T19:23:51.195Z,17.40
2019-05-13T19:26:22.641Z,20.17
2019-05-13T19:28:54.519Z,19.62
2019-05-13T19:31:27.507Z,18.23
2019-05-13T19:34:03.505Z,18.73
2019-05-13T19:36:35.599Z,20.05
2019-05-13T19:39:21.650Z,16.90
2019-05-13T19:41:53.637Z,15.25
2019-05-13T19:44:31.372Z,14.63
2019-05-13T19:47:05.478Z,17.17
2019-05-13T19:49:46.656Z,14.65
2019-05-13T19:52:48.201Z,24.07
2019-05-13T19:55:20.031Z,16.80
2019-05-13T19:57:54.765Z,16.82
2019-05-13T20:00:32.719Z,17.42
2019-05-13T20:03:11.629Z,18.02
2019-05-13T20:05:51.444Z,21.45
2019-05-13T20:08:25.474Z,19.05
2019-05-13T20:10:57.299Z,20.40
2019-05-13T20:13:32.476Z,23.00
2019-05-13T20:16:27.573Z,24.95
2019-05-13T20:19:01.287Z,20.97
2019-05-13T20:24:18.209Z,21.00
2019-05-13T20:30:34.831Z,24.98
2019-05-13T20:33:11.778Z,22.37
2019-05-13T20:35:45.548Z,20.20
2019-05-13T20:38:45.347Z,23.83
2019-05-13T20:41:36.626Z,23.95
2019-05-13T20:44:10.043Z,20.82
2019-05-13T20:46:51.867Z,20.32
2019-05-13T20:49:31.320Z,21.07
2019-05-13T20:52:01.868Z,18.20
2019-05-13T20:54:34.529Z,24.43
2019-05-13T20:57:09.226Z,21.80
2019-05-13T20:59:43.462Z,20.40
2019-05-13T21:02:14.633Z,21.80
2019-05-13T21:04:46.537Z,20.85
2019-05-13T21:07:18.497Z,18.60
2019-05-13T21:09:51.267Z,19.00
2019-05-13T21:12:25.190Z,21.52
2019-05-13T21:14:56.653Z,23.52
2019-05-13T21:17:31.382Z,21.33
2019-05-13T21:20:18.538Z,19.57
2019-05-13T21:22:42.388Z,20.35
2019-05-13T21:25:15.390Z,19.10
2019-05-13T21:27:51.489Z,18.95
2019-05-13T21:30:34.949Z,19.50
2019-05-13T21:33:11.534Z,22.95
2019-05-13T21:35:51.176Z,24.57
2019-05-13T21:38:24.722Z,22.48
2019-05-13T21:40:57.681Z,25.25
2019-05-13T21:43:32.496Z,25.57
2019-05-13T21:46:05.543Z,25.60
2019-05-13T21:48:38.612Z,30.60
2019-05-13T21:51:13.231Z,25.88
2019-05-13T21:53:43.718Z,25.72
2019-05-13T21:56:17.229Z,25.75
2019-05-13T21:58:52.363Z,25.80
2019-05-13T22:01:27.964Z,25.35
2019-05-13T22:04:01.752Z,32.67
2019-05-13T22:06:32.727Z,28.42
2019-05-13T22:09:08.238Z,27.80
2019-05-13T22:14:15.087Z,35.92
2019-05-13T22:16:51.641Z,29.02
2019-05-13T22:19:23.440Z,31.33
2019-05-13T22:21:56.834Z,32.25
2019-05-13T22:24:31.231Z,28.75
2019-05-13T22:27:06.303Z,31.07
2019-05-13T22:29:37.851Z,29.95
2019-05-13T22:32:11.290Z,31.70
2019-05-13T22:34:44.305Z,35.75
2019-05-13T22:37:17.558Z,31.82
2019-05-13T22:39:49.730Z,29.10
2019-05-13T22:42:21.635Z,28.87
2019-05-13T22:44:55.066Z,30.12
2019-05-13T22:47:31.559Z,31.90
2019-05-13T22:50:07.767Z,31.33
2019-05-13T22:52:39.017Z,33.20
2019-05-13T22:55:11.527Z,31.85
2019-05-13T22:57:43.428Z,31.07
2019-05-13T23:00:22.272Z,33.92
2019-05-13T23:02:53.688Z,33.25
2019-05-13T23:05:25.311Z,32.90
2019-05-13T23:07:56.932Z,32.17
2019-05-13T23:10:31.878Z,34.55
2019-05-13T23:13:11.397Z,31.00
2019-05-13T23:15:42.745Z,33.18
2019-05-13T23:18:17.250Z,30.43
2019-05-13T23:20:51.613Z,35.10
2019-05-13T23:23:22.772Z,30.77
2019-05-13T23:25:57.348Z,35.00
2019-05-13T23:28:32.075Z,29.80
2019-05-13T23:31:06.038Z,30.17
2019-05-13T23:33:37.347Z,32.48
2019-05-13T23:36:09.057Z,29.90
2019-05-13T23:38:41.341Z,32.55
2019-05-13T23:41:13.983Z,34.15
2019-05-13T23:43:46.132Z,30.43
2019-05-13T23:46:22.351Z,30.80
2019-05-13T23:48:55.330Z,31.33
2019-05-13T23:51:29.407Z,30.60
2019-05-13T23:54:01.673Z,37.70
2019-05-13T23:56:33.138Z,33.55
2019-05-13T23:59:04.542Z,34.78
